sensor_id;sensor_type;location;lat;lon;timestamp;temperature;humidity
16732;DHT22;8484;50.904;9.192;2023-09-08T00:02:23;16.60;99.90
16732;DHT22;8484;50.904;9.192;2023-09-08T00:04:52;16.60;99.90
16732;DHT22;8484;50.904;9.192;2023-09-08T00:07:19;16.60;99.90
16732;DHT22;8484;50.904;9.192;2023-09-08T00:09:46;16.60;99.90
16732;DHT22;8484;50.904;9.192;2023-09-08T00:12:13;16.60;99.90
16732;DHT22;8484;50.904;9.192;2023-09-08T00:14:40;16.60;99.90
16732;DHT22;8484;50.904;9.192;2023-09-08T00:17:07;16.50;99.90
16732;DHT22;8484;50.904;9.192;2023-09-08T00:19:34;16.40;99.90
16732;DHT22;8484;50.904;9.192;2023-09-08T00:22:03;16.40;99.90
16732;DHT22;8484;50.904;9.192;2023-09-08T00:24:31;16.40;99.90
16732;DHT22;8484;50.904;9.192;2023-09-08T00:26:58;16.40;99.90
16732;DHT22;8484;50.904;9.192;2023-09-08T00:29:25;16.30;99.90
16732;DHT22;8484;50.904;9.192;2023-09-08T00:31:52;16.40;99.90
16732;DHT22;8484;50.904;9.192;2023-09-08T00:34:19;16.30;99.90
16732;DHT22;8484;50.904;9.192;2023-09-08T00:36:45;16.40;99.90
16732;DHT22;8484;50.904;9.192;2023-09-08T00:39:14;16.20;99.90
16732;DHT22;8484;50.904;9.192;2023-09-08T00:41:41;16.20;99.90
16732;DHT22;8484;50.904;9.192;2023-09-08T00:44:07;16.20;99.90
16732;DHT22;8484;50.904;9.192;2023-09-08T00:46:37;16.50;99.90
16732;DHT22;8484;50.904;9.192;2023-09-08T00:49:05;16.20;99.90
16732;DHT22;8484;50.904;9.192;2023-09-08T00:51:32;16.00;99.90
16732;DHT22;8484;50.904;9.192;2023-09-08T00:54:00;15.80;99.90
16732;DHT22;8484;50.904;9.192;2023-09-08T00:56:29;15.90;99.90
16732;DHT22;8484;50.904;9.192;2023-09-08T00:58:56;15.60;99.90
16732;DHT22;8484;50.904;9.192;2023-09-08T01:01:23;15.50;99.90
16732;DHT22;8484;50.904;9.192;2023-09-08T01:03:50;15.10;99.90
16732;DHT22;8484;50.904;9.192;2023-09-08T01:06:17;15.00;99.90
16732;DHT22;8484;50.904;9.192;2023-09-08T01:08:45;14.80;99.90
16732;DHT22;8484;50.904;9.192;2023-09-08T01:11:12;14.90;99.90
16732;DHT22;8484;50.904;9.192;2023-09-08T01:13:40;15.00;99.90
16732;DHT22;8484;50.904;9.192;2023-09-08T01:16:09;15.20;99.90
16732;DHT22;8484;50.904;9.192;2023-09-08T01:18:36;15.20;99.90
16732;DHT22;8484;50.904;9.192;2023-09-08T01:21:14;15.20;99.90
16732;DHT22;8484;50.904;9.192;2023-09-08T01:23:59;15.20;99.90
16732;DHT22;8484;50.904;9.192;2023-09-08T01:26:37;15.10;99.90
16732;DHT22;8484;50.904;9.192;2023-09-08T01:29:07;14.80;99.90
16732;DHT22;8484;50.904;9.192;2023-09-08T01:31:36;14.70;99.90
16732;DHT22;8484;50.904;9.192;2023-09-08T01:34:05;14.70;99.90
16732;DHT22;8484;50.904;9.192;2023-09-08T01:39:54;14.70;99.90
16732;DHT22;8484;50.904;9.192;2023-09-08T01:42:22;14.80;99.90
16732;DHT22;8484;50.904;9.192;2023-09-08T01:44:49;15.00;99.90
16732;DHT22;8484;50.904;9.192;2023-09-08T01:47:16;15.10;99.90
16732;DHT22;8484;50.904;9.192;2023-09-08T01:49:43;15.10;99.90
16732;DHT22;8484;50.904;9.192;2023-09-08T01:52:10;14.90;99.90
16732;DHT22;8484;50.904;9.192;2023-09-08T01:54:37;15.00;99.90
16732;DHT22;8484;50.904;9.192;2023-09-08T01:57:04;15.00;99.90
16732;DHT22;8484;50.904;9.192;2023-09-08T01:59:32;14.80;99.90
16732;DHT22;8484;50.904;9.192;2023-09-08T02:01:59;14.70;99.90
16732;DHT22;8484;50.904;9.192;2023-09-08T02:04:26;14.70;99.90
16732;DHT22;8484;50.904;9.192;2023-09-08T02:06:53;14.90;99.90
16732;DHT22;8484;50.904;9.192;2023-09-08T02:09:20;14.90;99.90
16732;DHT22;8484;50.904;9.192;2023-09-08T02:11:47;14.80;99.90
16732;DHT22;8484;50.904;9.192;2023-09-08T02:14:14;14.90;99.90
16732;DHT22;8484;50.904;9.192;2023-09-08T02:16:42;14.80;99.90
16732;DHT22;8484;50.904;9.192;2023-09-08T02:19:09;14.80;99.90
16732;DHT22;8484;50.904;9.192;2023-09-08T02:21:36;14.70;99.90
16732;DHT22;8484;50.904;9.192;2023-09-08T02:24:03;14.80;99.90
16732;DHT22;8484;50.904;9.192;2023-09-08T02:26:30;15.00;99.90
16732;DHT22;8484;50.904;9.192;2023-09-08T02:28:59;14.90;99.90
16732;DHT22;8484;50.904;9.192;2023-09-08T02:31:26;15.10;99.90
16732;DHT22;8484;50.904;9.192;2023-09-08T02:33:54;15.20;99.90
16732;DHT22;8484;50.904;9.192;2023-09-08T02:36:25;15.20;99.90
16732;DHT22;8484;50.904;9.192;2023-09-08T02:38:52;15.30;99.90
16732;DHT22;8484;50.904;9.192;2023-09-08T02:41:19;15.30;99.90
16732;DHT22;8484;50.904;9.192;2023-09-08T02:43:46;15.40;99.90
16732;DHT22;8484;50.904;9.192;2023-09-08T02:46:13;15.20;99.90
16732;DHT22;8484;50.904;9.192;2023-09-08T02:48:40;15.20;99.90
16732;DHT22;8484;50.904;9.192;2023-09-08T02:51:08;15.20;99.90
16732;DHT22;8484;50.904;9.192;2023-09-08T02:53:35;15.10;99.90
16732;DHT22;8484;50.904;9.192;2023-09-08T02:56:02;15.10;99.90
16732;DHT22;8484;50.904;9.192;2023-09-08T02:58:31;15.20;99.90
16732;DHT22;8484;50.904;9.192;2023-09-08T03:01:10;15.20;99.90
16732;DHT22;8484;50.904;9.192;2023-09-08T03:03:37;15.20;99.90
16732;DHT22;8484;50.904;9.192;2023-09-08T03:06:04;15.00;99.90
16732;DHT22;8484;50.904;9.192;2023-09-08T03:08:32;15.10;99.90
16732;DHT22;8484;50.904;9.192;2023-09-08T03:10:59;14.90;99.90
16732;DHT22;8484;50.904;9.192;2023-09-08T03:13:26;14.60;99.90
16732;DHT22;8484;50.904;9.192;2023-09-08T03:15:54;14.60;99.90
16732;DHT22;8484;50.904;9.192;2023-09-08T03:18:21;14.90;99.90
16732;DHT22;8484;50.904;9.192;2023-09-08T03:20:49;15.00;99.90
16732;DHT22;8484;50.904;9.192;2023-09-08T03:23:16;14.60;99.90
16732;DHT22;8484;50.904;9.192;2023-09-08T03:25:44;14.50;99.90
16732;DHT22;8484;50.904;9.192;2023-09-08T03:28:12;14.50;99.90
16732;DHT22;8484;50.904;9.192;2023-09-08T03:30:38;14.60;99.90
16732;DHT22;8484;50.904;9.192;2023-09-08T03:33:05;14.30;99.90
16732;DHT22;8484;50.904;9.192;2023-09-08T03:35:32;14.20;99.90
16732;DHT22;8484;50.904;9.192;2023-09-08T03:37:59;14.40;99.90
16732;DHT22;8484;50.904;9.192;2023-09-08T03:40:26;14.30;99.90
16732;DHT22;8484;50.904;9.192;2023-09-08T03:42:54;14.30;99.90
16732;DHT22;8484;50.904;9.192;2023-09-08T03:45:25;14.10;99.90
16732;DHT22;8484;50.904;9.192;2023-09-08T03:47:52;14.00;99.90
16732;DHT22;8484;50.904;9.192;2023-09-08T03:50:18;13.60;99.90
16732;DHT22;8484;50.904;9.192;2023-09-08T03:52:45;13.80;99.90
16732;DHT22;8484;50.904;9.192;2023-09-08T03:55:12;13.70;99.90
16732;DHT22;8484;50.904;9.192;2023-09-08T03:57:40;14.00;99.90
16732;DHT22;8484;50.904;9.192;2023-09-08T04:00:09;13.90;99.90
16732;DHT22;8484;50.904;9.192;2023-09-08T04:02:37;13.90;99.90
16732;DHT22;8484;50.904;9.192;2023-09-08T04:05:05;13.60;99.90
16732;DHT22;8484;50.904;9.192;2023-09-08T04:07:32;13.50;99.90
16732;DHT22;8484;50.904;9.192;2023-09-08T04:09:59;13.50;99.90
16732;DHT22;8484;50.904;9.192;2023-09-08T04:12:26;13.50;99.90
16732;DHT22;8484;50.904;9.192;2023-09-08T04:14:53;13.60;99.90
16732;DHT22;8484;50.904;9.192;2023-09-08T04:17:21;13.80;99.90
16732;DHT22;8484;50.904;9.192;2023-09-08T04:19:48;14.10;99.90
16732;DHT22;8484;50.904;9.192;2023-09-08T04:22:16;13.80;99.90
16732;DHT22;8484;50.904;9.192;2023-09-08T04:24:43;13.90;99.90
16732;DHT22;8484;50.904;9.192;2023-09-08T04:27:10;13.80;99.90
16732;DHT22;8484;50.904;9.192;2023-09-08T04:29:37;13.80;99.90
16732;DHT22;8484;50.904;9.192;2023-09-08T04:32:04;13.80;99.90
16732;DHT22;8484;50.904;9.192;2023-09-08T04:34:37;13.60;99.90
16732;DHT22;8484;50.904;9.192;2023-09-08T04:37:05;14.00;99.90
16732;DHT22;8484;50.904;9.192;2023-09-08T04:39:32;13.80;99.90
16732;DHT22;8484;50.904;9.192;2023-09-08T04:41:59;13.70;99.90
16732;DHT22;8484;50.904;9.192;2023-09-08T04:44:27;13.60;99.90
16732;DHT22;8484;50.904;9.192;2023-09-08T04:46:54;13.60;99.90
16732;DHT22;8484;50.904;9.192;2023-09-08T04:49:21;13.70;99.90
16732;DHT22;8484;50.904;9.192;2023-09-08T04:51:50;13.50;99.90
16732;DHT22;8484;50.904;9.192;2023-09-08T04:54:16;13.50;99.90
16732;DHT22;8484;50.904;9.192;2023-09-08T04:56:45;13.30;99.90
16732;DHT22;8484;50.904;9.192;2023-09-08T04:59:12;13.50;99.90
16732;DHT22;8484;50.904;9.192;2023-09-08T05:01:39;13.70;99.90
16732;DHT22;8484;50.904;9.192;2023-09-08T05:04:06;13.70;99.90
16732;DHT22;8484;50.904;9.192;2023-09-08T05:06:33;13.80;99.90
16732;DHT22;8484;50.904;9.192;2023-09-08T05:09:01;13.80;99.90
16732;DHT22;8484;50.904;9.192;2023-09-08T05:11:28;13.70;99.90
16732;DHT22;8484;50.904;9.192;2023-09-08T05:13:55;13.60;99.90
16732;DHT22;8484;50.904;9.192;2023-09-08T05:16:23;13.50;99.90
16732;DHT22;8484;50.904;9.192;2023-09-08T05:19:02;13.70;99.90
16732;DHT22;8484;50.904;9.192;2023-09-08T05:21:30;13.80;99.90
16732;DHT22;8484;50.904;9.192;2023-09-08T05:23:57;13.80;99.90
16732;DHT22;8484;50.904;9.192;2023-09-08T05:26:25;13.90;99.90
16732;DHT22;8484;50.904;9.192;2023-09-08T05:28:56;13.90;99.90
16732;DHT22;8484;50.904;9.192;2023-09-08T05:31:23;14.10;99.90
16732;DHT22;8484;50.904;9.192;2023-09-08T05:33:52;14.00;99.90
16732;DHT22;8484;50.904;9.192;2023-09-08T05:36:19;14.00;99.90
16732;DHT22;8484;50.904;9.192;2023-09-08T05:38:46;14.20;99.90
16732;DHT22;8484;50.904;9.192;2023-09-08T05:41:13;14.30;99.90
16732;DHT22;8484;50.904;9.192;2023-09-08T05:43:41;14.40;99.90
16732;DHT22;8484;50.904;9.192;2023-09-08T05:46:08;14.40;99.90
16732;DHT22;8484;50.904;9.192;2023-09-08T05:48:35;14.50;99.90
16732;DHT22;8484;50.904;9.192;2023-09-08T05:51:02;14.80;99.90
16732;DHT22;8484;50.904;9.192;2023-09-08T05:53:31;14.90;99.90
16732;DHT22;8484;50.904;9.192;2023-09-08T05:55:58;15.20;99.90
16732;DHT22;8484;50.904;9.192;2023-09-08T05:58:25;15.30;99.90
16732;DHT22;8484;50.904;9.192;2023-09-08T06:00:54;15.40;99.90
16732;DHT22;8484;50.904;9.192;2023-09-08T06:03:21;15.70;99.90
16732;DHT22;8484;50.904;9.192;2023-09-08T06:05:48;16.00;99.90
16732;DHT22;8484;50.904;9.192;2023-09-08T06:08:15;16.10;99.90
16732;DHT22;8484;50.904;9.192;2023-09-08T06:10:42;16.20;99.90
16732;DHT22;8484;50.904;9.192;2023-09-08T06:13:09;16.20;99.90
16732;DHT22;8484;50.904;9.192;2023-09-08T06:15:36;16.30;99.90
16732;DHT22;8484;50.904;9.192;2023-09-08T06:18:05;16.50;99.90
16732;DHT22;8484;50.904;9.192;2023-09-08T06:20:32;16.70;99.90
16732;DHT22;8484;50.904;9.192;2023-09-08T06:22:58;16.70;99.90
16732;DHT22;8484;50.904;9.192;2023-09-08T06:25:26;16.80;99.90
16732;DHT22;8484;50.904;9.192;2023-09-08T06:27:54;17.00;99.90
16732;DHT22;8484;50.904;9.192;2023-09-08T06:30:21;17.30;99.90
16732;DHT22;8484;50.904;9.192;2023-09-08T06:32:48;17.60;99.90
16732;DHT22;8484;50.904;9.192;2023-09-08T06:35:16;17.70;99.90
16732;DHT22;8484;50.904;9.192;2023-09-08T06:37:43;17.90;99.90
16732;DHT22;8484;50.904;9.192;2023-09-08T06:40:10;18.00;99.90
16732;DHT22;8484;50.904;9.192;2023-09-08T06:42:37;18.10;99.90
16732;DHT22;8484;50.904;9.192;2023-09-08T06:45:05;18.10;99.90
16732;DHT22;8484;50.904;9.192;2023-09-08T06:47:32;18.20;99.90
16732;DHT22;8484;50.904;9.192;2023-09-08T06:49:59;18.40;99.90
16732;DHT22;8484;50.904;9.192;2023-09-08T06:52:27;18.60;99.90
16732;DHT22;8484;50.904;9.192;2023-09-08T06:54:54;18.80;99.90
16732;DHT22;8484;50.904;9.192;2023-09-08T06:57:21;18.90;99.90
16732;DHT22;8484;50.904;9.192;2023-09-08T06:59:47;19.10;99.90
16732;DHT22;8484;50.904;9.192;2023-09-08T07:02:14;19.30;99.90
16732;DHT22;8484;50.904;9.192;2023-09-08T07:04:41;19.10;99.90
16732;DHT22;8484;50.904;9.192;2023-09-08T07:07:08;19.10;99.90
16732;DHT22;8484;50.904;9.192;2023-09-08T07:09:37;19.30;99.90
16732;DHT22;8484;50.904;9.192;2023-09-08T07:12:05;19.70;99.90
16732;DHT22;8484;50.904;9.192;2023-09-08T07:14:32;19.70;99.90
16732;DHT22;8484;50.904;9.192;2023-09-08T07:16:59;20.00;99.90
16732;DHT22;8484;50.904;9.192;2023-09-08T07:19:26;20.40;99.90
16732;DHT22;8484;50.904;9.192;2023-09-08T07:21:53;20.30;99.90
16732;DHT22;8484;50.904;9.192;2023-09-08T07:24:20;20.30;99.90
16732;DHT22;8484;50.904;9.192;2023-09-08T07:26:48;20.70;99.90
16732;DHT22;8484;50.904;9.192;2023-09-08T07:29:16;21.00;99.90
16732;DHT22;8484;50.904;9.192;2023-09-08T07:31:43;21.40;99.90
16732;DHT22;8484;50.904;9.192;2023-09-08T07:34:09;21.60;99.90
16732;DHT22;8484;50.904;9.192;2023-09-08T07:36:36;21.60;99.90
16732;DHT22;8484;50.904;9.192;2023-09-08T07:39:04;21.60;99.90
16732;DHT22;8484;50.904;9.192;2023-09-08T07:41:30;21.90;99.90
16732;DHT22;8484;50.904;9.192;2023-09-08T07:43:59;22.10;99.90
16732;DHT22;8484;50.904;9.192;2023-09-08T07:46:26;22.20;99.90
16732;DHT22;8484;50.904;9.192;2023-09-08T07:48:53;22.20;99.90
16732;DHT22;8484;50.904;9.192;2023-09-08T07:51:20;22.60;99.90
16732;DHT22;8484;50.904;9.192;2023-09-08T07:53:47;22.80;99.90
16732;DHT22;8484;50.904;9.192;2023-09-08T07:56:14;23.50;99.90
16732;DHT22;8484;50.904;9.192;2023-09-08T07:58:41;23.40;99.90
16732;DHT22;8484;50.904;9.192;2023-09-08T08:01:09;23.20;99.90
16732;DHT22;8484;50.904;9.192;2023-09-08T08:03:36;23.50;99.90
16732;DHT22;8484;50.904;9.192;2023-09-08T08:06:04;23.50;99.90
16732;DHT22;8484;50.904;9.192;2023-09-08T08:08:31;23.90;99.90
16732;DHT22;8484;50.904;9.192;2023-09-08T08:10:58;24.00;99.90
16732;DHT22;8484;50.904;9.192;2023-09-08T08:13:25;24.70;99.90
16732;DHT22;8484;50.904;9.192;2023-09-08T08:15:52;24.70;99.90
16732;DHT22;8484;50.904;9.192;2023-09-08T08:18:21;24.80;99.90
16732;DHT22;8484;50.904;9.192;2023-09-08T08:20:48;25.10;99.90
16732;DHT22;8484;50.904;9.192;2023-09-08T08:23:14;25.60;99.90
16732;DHT22;8484;50.904;9.192;2023-09-08T08:25:41;25.60;99.90
16732;DHT22;8484;50.904;9.192;2023-09-08T08:28:08;26.10;99.90
16732;DHT22;8484;50.904;9.192;2023-09-08T08:30:35;26.50;99.90
16732;DHT22;8484;50.904;9.192;2023-09-08T08:33:02;26.60;99.90
16732;DHT22;8484;50.904;9.192;2023-09-08T08:35:31;26.40;99.90
16732;DHT22;8484;50.904;9.192;2023-09-08T08:37:58;26.70;99.90
16732;DHT22;8484;50.904;9.192;2023-09-08T08:40:24;27.30;99.90
16732;DHT22;8484;50.904;9.192;2023-09-08T08:42:54;26.80;99.90
16732;DHT22;8484;50.904;9.192;2023-09-08T08:45:23;26.30;99.90
16732;DHT22;8484;50.904;9.192;2023-09-08T08:47:50;26.10;99.90
16732;DHT22;8484;50.904;9.192;2023-09-08T08:50:18;26.80;99.90
16732;DHT22;8484;50.904;9.192;2023-09-08T08:52:47;26.60;99.90
16732;DHT22;8484;50.904;9.192;2023-09-08T08:55:14;26.70;99.90
16732;DHT22;8484;50.904;9.192;2023-09-08T08:57:41;26.70;99.90
16732;DHT22;8484;50.904;9.192;2023-09-08T09:00:11;27.30;99.90
16732;DHT22;8484;50.904;9.192;2023-09-08T09:02:40;26.60;99.90
16732;DHT22;8484;50.904;9.192;2023-09-08T09:05:09;27.20;99.90
16732;DHT22;8484;50.904;9.192;2023-09-08T09:07:38;27.60;99.40
16732;DHT22;8484;50.904;9.192;2023-09-08T09:10:07;27.70;99.10
16732;DHT22;8484;50.904;9.192;2023-09-08T09:12:36;27.10;99.40
16732;DHT22;8484;50.904;9.192;2023-09-08T09:15:03;27.20;99.50
16732;DHT22;8484;50.904;9.192;2023-09-08T09:17:32;26.90;99.60
16732;DHT22;8484;50.904;9.192;2023-09-08T09:20:13;27.50;99.00
16732;DHT22;8484;50.904;9.192;2023-09-08T09:22:43;27.90;98.40
16732;DHT22;8484;50.904;9.192;2023-09-08T09:25:21;28.00;98.30
16732;DHT22;8484;50.904;9.192;2023-09-08T09:27:51;28.10;98.80
16732;DHT22;8484;50.904;9.192;2023-09-08T09:30:18;28.30;97.60
16732;DHT22;8484;50.904;9.192;2023-09-08T09:32:45;29.00;96.80
16732;DHT22;8484;50.904;9.192;2023-09-08T09:35:15;29.00;97.00
16732;DHT22;8484;50.904;9.192;2023-09-08T09:37:42;29.40;96.20
16732;DHT22;8484;50.904;9.192;2023-09-08T09:40:10;29.40;96.40
16732;DHT22;8484;50.904;9.192;2023-09-08T09:42:38;29.40;95.80
16732;DHT22;8484;50.904;9.192;2023-09-08T09:45:06;28.90;96.50
16732;DHT22;8484;50.904;9.192;2023-09-08T09:47:34;29.50;94.70
16732;DHT22;8484;50.904;9.192;2023-09-08T09:50:01;29.50;94.10
16732;DHT22;8484;50.904;9.192;2023-09-08T09:52:29;30.30;94.20
16732;DHT22;8484;50.904;9.192;2023-09-08T09:54:58;31.00;93.00
16732;DHT22;8484;50.904;9.192;2023-09-08T09:57:26;30.50;88.70
16732;DHT22;8484;50.904;9.192;2023-09-08T09:59:53;30.70;90.70
16732;DHT22;8484;50.904;9.192;2023-09-08T10:02:22;30.40;90.70
16732;DHT22;8484;50.904;9.192;2023-09-08T10:04:49;30.90;91.20
16732;DHT22;8484;50.904;9.192;2023-09-08T10:07:17;31.20;90.60
16732;DHT22;8484;50.904;9.192;2023-09-08T10:09:44;31.90;88.30
16732;DHT22;8484;50.904;9.192;2023-09-08T10:12:13;31.60;87.00
16732;DHT22;8484;50.904;9.192;2023-09-08T10:14:44;31.50;88.10
16732;DHT22;8484;50.904;9.192;2023-09-08T10:17:15;31.00;90.00
16732;DHT22;8484;50.904;9.192;2023-09-08T10:19:44;31.50;86.50
16732;DHT22;8484;50.904;9.192;2023-09-08T10:22:15;31.90;86.90
16732;DHT22;8484;50.904;9.192;2023-09-08T10:24:46;32.60;84.40
16732;DHT22;8484;50.904;9.192;2023-09-08T10:27:15;33.40;81.60
16732;DHT22;8484;50.904;9.192;2023-09-08T10:29:47;33.30;85.10
16732;DHT22;8484;50.904;9.192;2023-09-08T10:32:25;33.10;82.60
16732;DHT22;8484;50.904;9.192;2023-09-08T10:35:02;32.60;83.20
16732;DHT22;8484;50.904;9.192;2023-09-08T10:37:38;33.10;82.00
16732;DHT22;8484;50.904;9.192;2023-09-08T10:40:21;34.10;83.00
16732;DHT22;8484;50.904;9.192;2023-09-08T10:43:11;34.00;83.90
16732;DHT22;8484;50.904;9.192;2023-09-08T10:45:44;32.60;84.70
16732;DHT22;8484;50.904;9.192;2023-09-08T10:48:15;32.90;80.70
16732;DHT22;8484;50.904;9.192;2023-09-08T10:50:42;32.00;81.20
16732;DHT22;8484;50.904;9.192;2023-09-08T10:53:14;33.00;81.70
16732;DHT22;8484;50.904;9.192;2023-09-08T10:55:43;33.50;81.00
16732;DHT22;8484;50.904;9.192;2023-09-08T10:58:20;33.00;82.60
16732;DHT22;8484;50.904;9.192;2023-09-08T11:00:52;33.30;79.50
16732;DHT22;8484;50.904;9.192;2023-09-08T11:03:28;33.40;79.90
16732;DHT22;8484;50.904;9.192;2023-09-08T11:06:06;33.40;79.10
16732;DHT22;8484;50.904;9.192;2023-09-08T11:08:34;33.20;78.90
16732;DHT22;8484;50.904;9.192;2023-09-08T11:11:02;32.90;81.10
16732;DHT22;8484;50.904;9.192;2023-09-08T11:13:29;33.50;79.80
16732;DHT22;8484;50.904;9.192;2023-09-08T11:15:57;32.90;80.80
16732;DHT22;8484;50.904;9.192;2023-09-08T11:18:26;32.20;81.70
16732;DHT22;8484;50.904;9.192;2023-09-08T11:20:53;32.50;80.30
16732;DHT22;8484;50.904;9.192;2023-09-08T11:23:20;33.10;79.60
16732;DHT22;8484;50.904;9.192;2023-09-08T11:25:47;33.90;80.20
16732;DHT22;8484;50.904;9.192;2023-09-08T11:28:15;34.60;78.40
16732;DHT22;8484;50.904;9.192;2023-09-08T11:30:43;35.10;77.60
16732;DHT22;8484;50.904;9.192;2023-09-08T11:33:54;35.10;79.10
16732;DHT22;8484;50.904;9.192;2023-09-08T11:36:21;33.00;80.40
16732;DHT22;8484;50.904;9.192;2023-09-08T11:38:48;33.10;80.50
16732;DHT22;8484;50.904;9.192;2023-09-08T11:41:15;33.90;78.30
16732;DHT22;8484;50.904;9.192;2023-09-08T11:43:43;33.80;77.80
16732;DHT22;8484;50.904;9.192;2023-09-08T11:46:11;33.50;77.00
16732;DHT22;8484;50.904;9.192;2023-09-08T11:48:40;34.40;77.50
16732;DHT22;8484;50.904;9.192;2023-09-08T11:51:10;34.20;77.70
16732;DHT22;8484;50.904;9.192;2023-09-08T11:53:37;34.00;80.10
16732;DHT22;8484;50.904;9.192;2023-09-08T11:56:05;33.90;78.20
16732;DHT22;8484;50.904;9.192;2023-09-08T11:58:32;33.80;76.70
16732;DHT22;8484;50.904;9.192;2023-09-08T12:01:00;33.90;77.90
16732;DHT22;8484;50.904;9.192;2023-09-08T12:03:27;34.00;77.40
16732;DHT22;8484;50.904;9.192;2023-09-08T12:05:54;33.90;76.00
16732;DHT22;8484;50.904;9.192;2023-09-08T12:08:25;33.00;75.40
16732;DHT22;8484;50.904;9.192;2023-09-08T12:10:53;32.70;76.10
16732;DHT22;8484;50.904;9.192;2023-09-08T12:13:21;32.70;78.10
16732;DHT22;8484;50.904;9.192;2023-09-08T12:15:49;32.30;78.00
16732;DHT22;8484;50.904;9.192;2023-09-08T12:18:16;31.80;78.50
16732;DHT22;8484;50.904;9.192;2023-09-08T12:20:44;31.80;78.00
16732;DHT22;8484;50.904;9.192;2023-09-08T12:23:19;31.80;78.60
16732;DHT22;8484;50.904;9.192;2023-09-08T12:25:48;31.90;78.10
16732;DHT22;8484;50.904;9.192;2023-09-08T12:28:18;32.10;76.70
16732;DHT22;8484;50.904;9.192;2023-09-08T12:30:46;32.80;76.40
16732;DHT22;8484;50.904;9.192;2023-09-08T12:33:14;31.90;79.60
16732;DHT22;8484;50.904;9.192;2023-09-08T12:35:42;31.70;76.50
16732;DHT22;8484;50.904;9.192;2023-09-08T12:38:10;32.10;75.40
16732;DHT22;8484;50.904;9.192;2023-09-08T12:40:37;32.10;76.90
16732;DHT22;8484;50.904;9.192;2023-09-08T12:43:09;31.90;74.90
16732;DHT22;8484;50.904;9.192;2023-09-08T12:45:35;31.70;75.80
16732;DHT22;8484;50.904;9.192;2023-09-08T12:48:03;32.00;75.40
16732;DHT22;8484;50.904;9.192;2023-09-08T12:50:32;32.70;75.50
16732;DHT22;8484;50.904;9.192;2023-09-08T12:52:59;32.50;74.90
16732;DHT22;8484;50.904;9.192;2023-09-08T12:55:26;32.60;74.90
16732;DHT22;8484;50.904;9.192;2023-09-08T12:57:53;32.40;75.30
16732;DHT22;8484;50.904;9.192;2023-09-08T13:00:25;31.90;76.40
16732;DHT22;8484;50.904;9.192;2023-09-08T13:02:53;31.90;75.70
16732;DHT22;8484;50.904;9.192;2023-09-08T13:05:20;31.90;76.60
16732;DHT22;8484;50.904;9.192;2023-09-08T13:07:47;32.00;75.30
16732;DHT22;8484;50.904;9.192;2023-09-08T13:10:14;31.60;77.10
16732;DHT22;8484;50.904;9.192;2023-09-08T13:12:41;31.20;77.90
16732;DHT22;8484;50.904;9.192;2023-09-08T13:15:09;31.40;78.60
16732;DHT22;8484;50.904;9.192;2023-09-08T13:17:37;31.10;76.90
16732;DHT22;8484;50.904;9.192;2023-09-08T13:20:05;30.80;77.20
16732;DHT22;8484;50.904;9.192;2023-09-08T13:22:32;31.20;77.50
16732;DHT22;8484;50.904;9.192;2023-09-08T13:25:00;32.00;75.80
16732;DHT22;8484;50.904;9.192;2023-09-08T13:27:27;32.30;76.70
16732;DHT22;8484;50.904;9.192;2023-09-08T13:29:54;32.60;77.30
16732;DHT22;8484;50.904;9.192;2023-09-08T13:32:21;32.30;76.90
16732;DHT22;8484;50.904;9.192;2023-09-08T13:34:51;32.20;77.20
16732;DHT22;8484;50.904;9.192;2023-09-08T13:37:19;32.70;75.70
16732;DHT22;8484;50.904;9.192;2023-09-08T13:39:46;32.70;76.50
16732;DHT22;8484;50.904;9.192;2023-09-08T13:42:13;31.70;77.50
16732;DHT22;8484;50.904;9.192;2023-09-08T13:44:39;31.80;76.60
16732;DHT22;8484;50.904;9.192;2023-09-08T13:47:06;31.70;74.50
16732;DHT22;8484;50.904;9.192;2023-09-08T13:49:33;31.10;75.80
16732;DHT22;8484;50.904;9.192;2023-09-08T13:52:02;31.00;77.90
16732;DHT22;8484;50.904;9.192;2023-09-08T13:54:29;30.90;77.10
16732;DHT22;8484;50.904;9.192;2023-09-08T13:57:00;31.00;76.10
16732;DHT22;8484;50.904;9.192;2023-09-08T13:59:33;30.70;75.80
16732;DHT22;8484;50.904;9.192;2023-09-08T14:02:00;30.70;76.60
16732;DHT22;8484;50.904;9.192;2023-09-08T14:04:29;30.70;78.30
16732;DHT22;8484;50.904;9.192;2023-09-08T14:06:56;30.50;73.90
16732;DHT22;8484;50.904;9.192;2023-09-08T14:09:24;30.20;73.00
16732;DHT22;8484;50.904;9.192;2023-09-08T14:11:52;30.70;73.60
16732;DHT22;8484;50.904;9.192;2023-09-08T14:14:21;30.60;73.80
16732;DHT22;8484;50.904;9.192;2023-09-08T14:16:49;31.00;74.50
16732;DHT22;8484;50.904;9.192;2023-09-08T14:19:16;30.40;76.10
16732;DHT22;8484;50.904;9.192;2023-09-08T14:21:43;29.90;77.80
16732;DHT22;8484;50.904;9.192;2023-09-08T14:24:10;30.40;76.50
16732;DHT22;8484;50.904;9.192;2023-09-08T14:26:40;30.50;77.50
16732;DHT22;8484;50.904;9.192;2023-09-08T14:29:07;30.20;76.40
16732;DHT22;8484;50.904;9.192;2023-09-08T14:31:34;30.00;77.00
16732;DHT22;8484;50.904;9.192;2023-09-08T14:34:00;30.50;77.00
16732;DHT22;8484;50.904;9.192;2023-09-08T14:36:29;30.40;76.30
16732;DHT22;8484;50.904;9.192;2023-09-08T14:38:55;30.20;76.70
16732;DHT22;8484;50.904;9.192;2023-09-08T14:41:22;29.80;78.00
16732;DHT22;8484;50.904;9.192;2023-09-08T14:43:50;29.90;78.70
16732;DHT22;8484;50.904;9.192;2023-09-08T14:46:17;29.80;74.90
16732;DHT22;8484;50.904;9.192;2023-09-08T14:48:45;29.90;76.60
16732;DHT22;8484;50.904;9.192;2023-09-08T14:51:12;29.70;76.40
16732;DHT22;8484;50.904;9.192;2023-09-08T14:53:38;29.60;77.10
16732;DHT22;8484;50.904;9.192;2023-09-08T14:56:05;29.70;75.40
16732;DHT22;8484;50.904;9.192;2023-09-08T14:58:32;30.10;75.20
16732;DHT22;8484;50.904;9.192;2023-09-08T15:01:01;30.50;73.30
16732;DHT22;8484;50.904;9.192;2023-09-08T15:03:32;30.30;75.60
16732;DHT22;8484;50.904;9.192;2023-09-08T15:06:00;30.00;75.40
16732;DHT22;8484;50.904;9.192;2023-09-08T15:08:28;30.20;71.80
16732;DHT22;8484;50.904;9.192;2023-09-08T15:10:55;30.20;72.80
16732;DHT22;8484;50.904;9.192;2023-09-08T15:13:22;29.60;73.40
16732;DHT22;8484;50.904;9.192;2023-09-08T15:15:49;29.40;75.20
16732;DHT22;8484;50.904;9.192;2023-09-08T15:18:17;29.30;75.50
16732;DHT22;8484;50.904;9.192;2023-09-08T15:20:51;29.30;75.20
16732;DHT22;8484;50.904;9.192;2023-09-08T15:23:19;29.10;73.50
16732;DHT22;8484;50.904;9.192;2023-09-08T15:25:53;29.00;73.20
16732;DHT22;8484;50.904;9.192;2023-09-08T15:28:20;29.10;75.10
16732;DHT22;8484;50.904;9.192;2023-09-08T15:30:48;29.00;74.90
16732;DHT22;8484;50.904;9.192;2023-09-08T15:33:15;28.90;75.20
16732;DHT22;8484;50.904;9.192;2023-09-08T15:35:44;28.80;75.90
16732;DHT22;8484;50.904;9.192;2023-09-08T15:38:10;28.70;76.80
16732;DHT22;8484;50.904;9.192;2023-09-08T15:40:38;28.70;78.40
16732;DHT22;8484;50.904;9.192;2023-09-08T15:43:05;28.60;75.30
16732;DHT22;8484;50.904;9.192;2023-09-08T15:45:32;28.60;75.50
16732;DHT22;8484;50.904;9.192;2023-09-08T15:47:59;28.60;75.90
16732;DHT22;8484;50.904;9.192;2023-09-08T15:50:26;28.50;75.30
16732;DHT22;8484;50.904;9.192;2023-09-08T15:52:54;28.40;78.20
16732;DHT22;8484;50.904;9.192;2023-09-08T15:55:21;28.30;75.50